createdAt,value
2023-03-26T00:00:20.799Z,87.26
2023-03-26T00:01:20.860Z,87.77
2023-03-26T00:02:20.869Z,87.57
2023-03-26T00:03:20.814Z,87.67
2023-03-26T00:04:20.753Z,87.36
2023-03-26T00:05:20.766Z,87.81
2023-03-26T00:06:20.747Z,88.18
2023-03-26T00:07:20.739Z,87.81
2023-03-26T00:08:20.701Z,87.92
2023-03-26T00:09:20.738Z,88.02
2023-03-26T00:10:20.789Z,88.12
2023-03-26T00:11:20.727Z,88.43
2023-03-26T00:12:20.771Z,88.64
2023-03-26T00:13:20.661Z,88.43
2023-03-26T00:14:20.727Z,88.74
2023-03-26T00:15:20.757Z,88.53
2023-03-26T00:16:20.656Z,88.53
2023-03-26T00:17:20.627Z,88.64
2023-03-26T00:18:20.934Z,87.92
2023-03-26T00:19:20.586Z,88.33
2023-03-26T00:20:20.650Z,88.43
2023-03-26T00:21:20.579Z,88.43
2023-03-26T00:22:20.632Z,88.53
2023-03-26T00:23:20.544Z,88.64
2023-03-26T00:24:20.785Z,88.33
2023-03-26T00:25:20.652Z,88.18
2023-03-26T00:26:20.546Z,88.08
2023-03-26T00:27:20.549Z,88.18
2023-03-26T00:28:20.527Z,87.67
2023-03-26T00:29:20.763Z,87.36
2023-03-26T00:30:20.498Z,87.46
2023-03-26T00:31:20.636Z,88.18
2023-03-26T00:32:20.572Z,87.46
2023-03-26T00:33:20.583Z,87.57
2023-03-26T00:34:20.665Z,87.15
2023-03-26T00:35:20.482Z,87.05
2023-03-26T00:36:20.840Z,87.26
2023-03-26T00:37:20.635Z,86.23
2023-03-26T00:38:20.389Z,86.85
2023-03-26T00:39:20.492Z,87.15
2023-03-26T00:40:20.424Z,87.15
2023-03-26T00:41:20.404Z,87.46
2023-03-26T00:42:20.669Z,87.15
2023-03-26T00:43:20.537Z,86.74
2023-03-26T00:44:20.501Z,87.36
2023-03-26T00:45:20.429Z,86.95
2023-03-26T00:46:20.534Z,87.15
2023-03-26T00:47:20.469Z,87.67
2023-03-26T00:48:20.907Z,87.15
2023-03-26T00:49:20.297Z,87.36
2023-03-26T00:50:20.711Z,87.77
2023-03-26T00:51:20.657Z,87.67
2023-03-26T00:52:20.475Z,87.15
2023-03-26T00:53:20.424Z,87.57
2023-03-26T00:54:20.203Z,87.36
2023-03-26T00:55:20.236Z,87.67
2023-03-26T00:56:20.470Z,87.57
2023-03-26T00:57:32.795Z,87.67
2023-03-26T00:58:20.268Z,87.57
2023-03-26T00:59:20.391Z,87.67
2023-03-26T01:00:20.312Z,87.98
2023-03-26T01:01:20.384Z,87.87
2023-03-26T01:02:20.158Z,88.18
2023-03-26T01:03:28.046Z,87.87
2023-03-26T01:04:20.636Z,88.49
2023-03-26T01:05:20.314Z,88.08
2023-03-26T01:06:20.075Z,88.08
2023-03-26T01:07:20.089Z,88.59
2023-03-26T01:08:20.482Z,88.29
2023-03-26T01:09:20.446Z,88.70
2023-03-26T01:10:20.455Z,88.70
2023-03-26T01:11:20.047Z,88.84
2023-03-26T01:12:20.321Z,88.33
2023-03-26T01:13:20.628Z,88.12
2023-03-26T01:14:20.329Z,88.95
2023-03-26T01:15:20.132Z,88.84
2023-03-26T01:16:20.371Z,89.15
2023-03-26T01:17:20.176Z,89.15
2023-03-26T01:18:19.976Z,89.05
2023-03-26T01:19:19.956Z,89.05
2023-03-26T01:20:20.017Z,88.95
2023-03-26T01:21:19.914Z,88.84
2023-03-26T01:22:20.019Z,88.74
2023-03-26T01:23:19.923Z,89.15
2023-03-26T01:24:19.895Z,89.05
2023-03-26T01:25:19.919Z,89.25
2023-03-26T01:26:19.923Z,89.05
2023-03-26T01:27:19.880Z,89.25
2023-03-26T01:28:20.006Z,88.84
2023-03-26T01:29:19.856Z,88.95
2023-03-26T01:30:19.874Z,89.05
2023-03-26T01:31:20.223Z,88.53
2023-03-26T01:32:19.971Z,88.23
2023-03-26T01:33:19.910Z,88.53
2023-03-26T01:34:19.812Z,88.84
2023-03-26T01:35:19.849Z,89.25
2023-03-26T01:36:19.813Z,88.99
2023-03-26T01:37:19.936Z,88.68
2023-03-26T01:38:19.886Z,89.19
2023-03-26T01:39:19.751Z,88.99
2023-03-26T01:40:19.709Z,89.09
2023-03-26T01:41:19.749Z,88.57
2023-03-26T01:42:19.927Z,89.09
2023-03-26T01:43:19.903Z,89.29
2023-03-26T01:44:19.679Z,89.09
2023-03-26T01:45:19.755Z,89.09
2023-03-26T01:46:19.791Z,88.89
2023-03-26T01:47:19.733Z,88.89
2023-03-26T01:48:19.640Z,88.99
2023-03-26T01:49:19.705Z,89.19
2023-03-26T01:50:19.644Z,89.09
2023-03-26T01:51:19.703Z,88.43
2023-03-26T01:52:19.647Z,88.53
2023-03-26T01:53:19.626Z,88.43
2023-03-26T01:54:19.610Z,88.74
2023-03-26T01:55:19.595Z,88.53
2023-03-26T01:56:19.791Z,87.81
2023-03-26T01:57:19.540Z,88.43
2023-03-26T01:58:19.895Z,88.95
2023-03-26T01:59:19.654Z,89.05
2023-03-26T02:00:19.541Z,88.33
2023-03-26T02:01:19.528Z,88.53
2023-03-26T02:02:19.584Z,88.74
2023-03-26T02:03:19.594Z,89.36
2023-03-26T02:04:19.462Z,88.74
2023-03-26T02:05:19.668Z,88.95
2023-03-26T02:06:19.545Z,88.64
2023-03-26T02:07:19.490Z,88.64
2023-03-26T02:08:19.408Z,88.74
2023-03-26T02:09:19.431Z,88.64
2023-03-26T02:10:19.696Z,88.53
2023-03-26T02:11:20.074Z,88.53
2023-03-26T02:12:19.346Z,88.74
2023-03-26T02:13:19.442Z,88.84
2023-03-26T02:14:19.407Z,88.84
2023-03-26T02:15:19.443Z,88.95
2023-03-26T02:16:19.444Z,88.95
2023-03-26T02:17:19.360Z,89.36
2023-03-26T02:18:19.436Z,88.95
2023-03-26T02:19:19.334Z,89.05
2023-03-26T02:20:19.363Z,88.23
2023-03-26T02:21:19.279Z,88.95
2023-03-26T02:22:19.393Z,89.36
2023-03-26T02:23:19.279Z,88.84
2023-03-26T02:24:19.269Z,88.78
2023-03-26T02:25:19.210Z,88.37
2023-03-26T02:26:19.324Z,88.78
2023-03-26T02:27:19.239Z,88.57
2023-03-26T02:28:19.224Z,88.06
2023-03-26T02:29:19.206Z,88.99
2023-03-26T02:30:19.183Z,89.19
2023-03-26T02:31:19.252Z,89.40
2023-03-26T02:32:19.310Z,89.50
2023-03-26T02:33:19.543Z,89.91
2023-03-26T02:34:19.222Z,90.22
2023-03-26T02:35:19.215Z,90.12
2023-03-26T02:36:19.208Z,90.12
2023-03-26T02:37:19.203Z,90.01
2023-03-26T02:38:19.087Z,90.43
2023-03-26T02:39:19.180Z,90.33
2023-03-26T02:40:19.169Z,90.43
2023-03-26T02:41:19.152Z,90.43
2023-03-26T02:42:19.075Z,90.43
2023-03-26T02:43:19.026Z,90.33
2023-03-26T02:44:19.116Z,90.33
2023-03-26T02:45:19.029Z,90.12
2023-03-26T02:46:19.158Z,90.53
2023-03-26T02:47:19.121Z,90.84
2023-03-26T02:48:19.035Z,90.01
2023-03-26T02:49:18.962Z,90.22
2023-03-26T02:50:19.070Z,90.73
2023-03-26T02:51:18.973Z,90.73
2023-03-26T02:52:19.030Z,90.22
2023-03-26T02:53:18.966Z,89.50
2023-03-26T02:54:19.107Z,90.01
2023-03-26T02:55:18.956Z,90.01
2023-03-26T02:56:18.987Z,89.50
2023-03-26T02:57:19.062Z,90.53
2023-03-26T02:58:18.970Z,90.12
2023-03-26T02:59:18.953Z,90.53
2023-03-26T03:00:18.876Z,90.64
2023-03-26T03:01:19.528Z,90.64
2023-03-26T03:02:18.872Z,90.43
2023-03-26T03:03:18.927Z,90.01
2023-03-26T03:04:18.824Z,90.73
2023-03-26T03:05:18.837Z,91.15
2023-03-26T03:06:18.870Z,90.64
2023-03-26T03:07:18.905Z,90.64
2023-03-26T03:08:18.773Z,90.53
2023-03-26T03:09:18.817Z,89.71
2023-03-26T03:10:18.723Z,90.73
2023-03-26T03:11:18.803Z,91.15
2023-03-26T03:12:18.867Z,91.15
2023-03-26T03:13:18.709Z,90.53
2023-03-26T03:14:18.719Z,90.73
2023-03-26T03:15:18.861Z,90.53
2023-03-26T03:16:18.717Z,91.15
2023-03-26T03:17:18.724Z,91.15
2023-03-26T03:18:18.629Z,90.84
2023-03-26T03:19:18.671Z,91.05
2023-03-26T03:20:18.655Z,90.94
2023-03-26T03:21:18.707Z,90.73
2023-03-26T03:22:18.709Z,91.05
2023-03-26T03:23:18.959Z,90.43
2023-03-26T03:24:18.730Z,90.94
2023-03-26T03:25:18.812Z,91.15
2023-03-26T03:26:18.580Z,90.53
2023-03-26T03:27:18.668Z,91.15
2023-03-26T03:28:18.612Z,90.53
2023-03-26T03:29:18.783Z,90.84
2023-03-26T03:30:18.519Z,90.84
2023-03-26T03:31:18.592Z,90.84
2023-03-26T03:32:18.693Z,90.33
2023-03-26T03:33:18.502Z,90.43
2023-03-26T03:34:18.502Z,91.05
2023-03-26T03:35:18.522Z,91.25
2023-03-26T03:36:19.777Z,90.94
2023-03-26T03:37:18.534Z,90.84
2023-03-26T03:38:18.492Z,90.53
2023-03-26T03:39:18.702Z,90.73
2023-03-26T03:40:18.428Z,91.46
2023-03-26T03:41:18.525Z,90.73
2023-03-26T03:42:18.395Z,90.22
2023-03-26T03:43:18.392Z,91.25
2023-03-26T03:44:18.376Z,91.15
2023-03-26T03:45:18.421Z,91.25
2023-03-26T03:46:18.439Z,91.15
2023-03-26T03:47:18.396Z,90.53
2023-03-26T03:48:18.372Z,91.87
2023-03-26T03:49:18.308Z,91.56
2023-03-26T03:50:18.906Z,91.77
2023-03-26T03:51:18.451Z,92.29
2023-03-26T03:52:18.517Z,91.46
2023-03-26T03:53:18.335Z,92.80
2023-03-26T03:54:18.303Z,92.08
2023-03-26T03:55:18.279Z,92.59
2023-03-26T03:56:18.313Z,92.38
2023-03-26T03:57:18.839Z,93.01
2023-03-26T03:58:18.369Z,93.01
2023-03-26T03:59:18.263Z,93.01
2023-03-26T04:00:18.255Z,92.90
2023-03-26T04:01:18.251Z,93.35
2023-03-26T04:02:18.443Z,93.15
2023-03-26T04:03:18.308Z,93.46
2023-03-26T04:04:18.230Z,93.98
2023-03-26T04:05:18.200Z,93.98
2023-03-26T04:06:18.134Z,94.28
2023-03-26T04:07:18.194Z,94.18
2023-03-26T04:08:18.176Z,94.28
2023-03-26T04:09:18.135Z,94.49
2023-03-26T04:10:18.268Z,94.80
2023-03-26T04:11:18.189Z,94.70
2023-03-26T04:12:18.063Z,95.52
2023-03-26T04:13:18.053Z,95.00
2023-03-26T04:14:18.126Z,94.80
2023-03-26T04:15:18.190Z,95.10
2023-03-26T04:16:18.092Z,94.49
2023-03-26T04:17:18.197Z,95.83
2023-03-26T04:18:18.067Z,95.00
2023-03-26T04:19:17.980Z,95.21
2023-03-26T04:20:18.053Z,95.21
2023-03-26T04:21:18.007Z,96.34
2023-03-26T04:22:17.996Z,96.03
2023-03-26T04:23:18.121Z,96.14
2023-03-26T04:24:18.237Z,96.55
2023-03-26T04:25:17.984Z,96.34
2023-03-26T04:26:17.978Z,96.86
2023-03-26T04:27:17.954Z,96.86
2023-03-26T04:28:17.907Z,96.03
2023-03-26T04:29:17.925Z,96.75
2023-03-26T04:30:17.956Z,95.93
2023-03-26T04:31:17.894Z,97.17
2023-03-26T04:32:17.874Z,96.66
2023-03-26T04:33:17.839Z,96.66
2023-03-26T04:34:17.858Z,97.27
2023-03-26T04:35:17.867Z,96.75
2023-03-26T04:36:18.528Z,97.17
2023-03-26T04:37:17.801Z,97.27
2023-03-26T04:38:17.950Z,97.06
2023-03-26T04:39:17.817Z,97.42
2023-03-26T04:40:17.800Z,97.42
2023-03-26T04:41:17.823Z,96.80
2023-03-26T04:42:17.749Z,97.01
2023-03-26T04:43:17.766Z,97.63
2023-03-26T04:44:17.762Z,97.42
2023-03-26T04:45:18.144Z,97.42
2023-03-26T04:46:17.675Z,97.21
2023-03-26T04:47:17.643Z,98.14
2023-03-26T04:48:17.716Z,97.52
2023-03-26T04:49:17.655Z,97.42
2023-03-26T04:50:17.641Z,97.83
2023-03-26T04:51:17.844Z,97.73
2023-03-26T04:52:17.703Z,97.73
2023-03-26T04:53:17.688Z,97.63
2023-03-26T04:54:17.567Z,97.21
2023-03-26T04:55:17.675Z,97.21
2023-03-26T04:56:17.687Z,97.52
2023-03-26T04:57:17.606Z,97.52
2023-03-26T04:58:17.537Z,97.73
2023-03-26T04:59:17.735Z,97.52
2023-03-26T05:00:17.699Z,97.21
2023-03-26T05:01:17.732Z,97.73
2023-03-26T05:02:17.638Z,97.31
2023-03-26T05:03:17.478Z,97.42
2023-03-26T05:04:17.497Z,97.73
2023-03-26T05:05:17.591Z,97.94
2023-03-26T05:06:17.476Z,97.52
2023-03-26T05:07:17.487Z,97.83
2023-03-26T05:08:17.457Z,98.03
2023-03-26T05:09:17.449Z,97.73
2023-03-26T05:10:17.415Z,97.11
2023-03-26T05:11:17.383Z,97.94
2023-03-26T05:12:17.639Z,98.14
2023-03-26T05:13:17.418Z,98.03
2023-03-26T05:14:17.390Z,98.45
2023-03-26T05:15:17.350Z,97.83
2023-03-26T05:16:17.445Z,97.83
2023-03-26T05:17:17.350Z,97.73
2023-03-26T05:18:17.335Z,97.26
2023-03-26T05:19:17.354Z,97.63
2023-03-26T05:20:17.363Z,97.63
2023-03-26T05:21:17.545Z,97.52
2023-03-26T05:22:17.560Z,97.63
2023-03-26T05:23:17.336Z,98.35
2023-03-26T05:24:17.266Z,98.35
2023-03-26T05:25:17.252Z,97.52
2023-03-26T05:26:17.275Z,97.73
2023-03-26T05:27:17.235Z,97.73
2023-03-26T05:28:17.239Z,97.21
2023-03-26T05:29:17.375Z,97.73
2023-03-26T05:30:17.215Z,97.42
2023-03-26T05:31:17.195Z,97.21
2023-03-26T05:32:17.142Z,96.70
2023-03-26T05:33:17.324Z,96.59
2023-03-26T05:34:17.152Z,96.80
2023-03-26T05:35:17.361Z,97.11
2023-03-26T05:36:17.294Z,96.91
2023-03-26T05:37:17.240Z,96.91
2023-03-26T05:38:17.118Z,96.80
2023-03-26T05:39:17.093Z,96.59
2023-03-26T05:40:17.365Z,96.70
2023-03-26T05:41:17.137Z,96.80
2023-03-26T05:42:17.065Z,96.91
2023-03-26T05:43:17.113Z,97.21
2023-03-26T05:44:17.113Z,97.31
2023-03-26T05:45:17.636Z,96.59
2023-03-26T05:46:17.068Z,96.70
2023-03-26T05:47:17.029Z,97.21
2023-03-26T05:48:17.013Z,96.91
2023-03-26T05:49:17.013Z,96.80
2023-03-26T05:50:16.956Z,96.59
2023-03-26T05:51:16.984Z,97.06
2023-03-26T05:52:16.967Z,96.75
2023-03-26T05:53:17.006Z,97.06
2023-03-26T05:54:16.931Z,97.58
2023-03-26T05:55:16.936Z,97.06
2023-03-26T05:56:16.995Z,96.45
2023-03-26T05:57:16.915Z,97.38
2023-03-26T05:58:16.903Z,97.17
2023-03-26T05:59:16.885Z,97.38
2023-03-26T06:00:16.907Z,97.27
2023-03-26T06:01:16.901Z,97.06
2023-03-26T06:02:16.868Z,97.48
2023-03-26T06:03:17.081Z,96.24
2023-03-26T06:04:16.898Z,96.14
2023-03-26T06:05:16.881Z,96.03
2023-03-26T06:06:16.888Z,96.45
2023-03-26T06:07:16.796Z,96.45
2023-03-26T06:08:16.795Z,96.66
2023-03-26T06:09:16.759Z,96.45
2023-03-26T06:10:18.528Z,96.66
2023-03-26T06:11:16.752Z,96.34
2023-03-26T06:12:16.772Z,96.03
2023-03-26T06:13:16.740Z,96.24
2023-03-26T06:14:16.688Z,96.24
2023-03-26T06:15:16.730Z,94.90
2023-03-26T06:16:26.336Z,96.20
2023-03-26T06:17:16.784Z,95.27
2023-03-26T06:18:16.668Z,95.68
2023-03-26T06:19:16.737Z,94.96
2023-03-26T06:20:16.670Z,95.68
2023-03-26T06:21:16.641Z,95.37
2023-03-26T06:22:16.648Z,94.45
2023-03-26T06:23:16.701Z,94.76
2023-03-26T06:24:16.659Z,94.96
2023-03-26T06:25:16.637Z,94.96
2023-03-26T06:26:16.589Z,94.96
2023-03-26T06:27:16.962Z,94.76
2023-03-26T06:28:16.556Z,94.34
2023-03-26T06:29:16.565Z,94.65
2023-03-26T06:30:16.545Z,94.76
2023-03-26T06:31:16.535Z,95.58
2023-03-26T06:32:20.215Z,96.20
2023-03-26T06:33:16.539Z,94.85
2023-03-26T06:34:16.511Z,95.58
2023-03-26T06:35:16.477Z,95.68
2023-03-26T06:36:16.537Z,95.06
2023-03-26T06:37:16.475Z,94.85
2023-03-26T06:38:16.514Z,95.84
2023-03-26T06:39:16.443Z,94.81
2023-03-26T06:40:16.446Z,95.84
2023-03-26T06:41:16.426Z,94.60
2023-03-26T06:42:16.458Z,95.02
2023-03-26T06:43:16.429Z,94.92
2023-03-26T06:44:16.405Z,94.40
2023-03-26T06:45:16.472Z,95.23
2023-03-26T06:46:16.494Z,96.15
2023-03-26T06:47:16.379Z,95.74
2023-03-26T06:48:16.375Z,95.33
2023-03-26T06:49:16.363Z,94.92
2023-03-26T06:50:16.390Z,95.64
2023-03-26T06:51:16.371Z,95.53
2023-03-26T06:52:16.301Z,94.81
2023-03-26T06:53:16.317Z,95.64
2023-03-26T06:54:16.289Z,95.43
2023-03-26T06:55:16.275Z,96.05
2023-03-26T06:56:16.304Z,95.53
2023-03-26T06:57:16.264Z,95.33
2023-03-26T06:58:16.255Z,95.02
2023-03-26T06:59:16.262Z,95.33
2023-03-26T07:00:16.226Z,94.92
2023-03-26T07:01:16.291Z,93.88
2023-03-26T07:02:16.200Z,94.51
2023-03-26T07:03:16.451Z,93.79
2023-03-26T07:04:16.242Z,94.60
2023-03-26T07:05:16.239Z,94.98
2023-03-26T07:06:16.172Z,94.87
2023-03-26T07:07:16.176Z,94.67
2023-03-26T07:08:16.153Z,94.81
2023-03-26T07:09:16.129Z,94.36
2023-03-26T07:10:16.356Z,94.98
2023-03-26T07:11:16.123Z,95.08
2023-03-26T07:12:16.338Z,94.05
2023-03-26T07:13:16.099Z,94.36
2023-03-26T07:14:16.152Z,93.84
2023-03-26T07:15:16.120Z,94.67
2023-03-26T07:16:16.091Z,94.77
2023-03-26T07:17:16.035Z,94.26
2023-03-26T07:18:16.036Z,94.77
2023-03-26T07:19:16.174Z,94.98
2023-03-26T07:20:16.031Z,95.28
2023-03-26T07:21:15.996Z,93.95
2023-03-26T07:22:16.001Z,95.39
2023-03-26T07:23:16.014Z,95.28
2023-03-26T07:24:16.300Z,94.77
2023-03-26T07:25:15.989Z,94.77
2023-03-26T07:26:16.267Z,94.67
2023-03-26T07:27:15.930Z,95.28
2023-03-26T07:28:15.918Z,94.77
2023-03-26T07:29:15.931Z,95.28
2023-03-26T07:30:15.994Z,95.39
2023-03-26T07:31:15.912Z,96.31
2023-03-26T07:32:17.266Z,96.62
2023-03-26T07:33:15.856Z,96.93
2023-03-26T07:34:15.855Z,97.65
2023-03-26T07:35:15.865Z,97.55
2023-03-26T07:36:15.853Z,97.75
2023-03-26T07:37:15.857Z,97.49
2023-03-26T07:38:15.792Z,98.11
2023-03-26T07:39:15.815Z,98.21
2023-03-26T07:40:16.049Z,98.21
2023-03-26T07:41:15.780Z,98.62
2023-03-26T07:42:15.801Z,98.93
2023-03-26T07:43:15.789Z,98.72
2023-03-26T07:44:15.735Z,99.14
2023-03-26T07:45:15.875Z,99.55
2023-03-26T07:46:15.783Z,99.86
2023-03-26T07:47:15.715Z,99.99
2023-03-26T07:48:15.695Z,99.99
2023-03-26T07:49:15.675Z,99.99
2023-03-26T07:50:17.688Z,99.99
2023-03-26T07:51:15.660Z,99.99
2023-03-26T07:52:15.652Z,99.99
2023-03-26T07:53:15.661Z,99.99
2023-03-26T07:54:15.748Z,99.99
2023-03-26T07:55:15.705Z,99.99
2023-03-26T07:56:15.734Z,99.99
2023-03-26T07:57:15.647Z,99.99
2023-03-26T07:58:15.591Z,99.99
2023-03-26T07:59:15.582Z,99.99
2023-03-26T08:00:15.602Z,99.99
2023-03-26T08:01:15.749Z,99.99
2023-03-26T08:02:15.529Z,99.99
2023-03-26T08:03:15.638Z,99.99
2023-03-26T08:04:23.298Z,99.99
2023-03-26T08:05:15.543Z,99.99
2023-03-26T08:06:15.542Z,99.99
2023-03-26T08:07:15.520Z,99.99
2023-03-26T08:08:15.470Z,99.99
2023-03-26T08:09:15.458Z,99.99
2023-03-26T08:10:15.465Z,99.99
2023-03-26T08:11:15.447Z,99.99
2023-03-26T08:12:15.478Z,99.99
2023-03-26T08:13:15.472Z,99.99
2023-03-26T08:14:15.413Z,99.99
2023-03-26T08:15:15.393Z,99.99
2023-03-26T08:16:15.547Z,99.99
2023-03-26T08:17:15.406Z,99.99
2023-03-26T08:18:15.376Z,99.99
2023-03-26T08:19:15.374Z,99.99
2023-03-26T08:20:15.376Z,99.99
2023-03-26T08:21:15.340Z,99.99
2023-03-26T08:22:15.333Z,99.99
2023-03-26T08:23:15.367Z,99.99
2023-03-26T08:24:15.305Z,99.99
2023-03-26T08:25:15.309Z,99.99
2023-03-26T08:26:15.279Z,99.99
2023-03-26T08:27:15.298Z,99.99
2023-03-26T08:28:15.262Z,99.99
2023-03-26T08:29:15.310Z,99.99
2023-03-26T08:30:15.269Z,99.99
2023-03-26T08:31:15.315Z,99.99
2023-03-26T08:32:15.214Z,99.99
2023-03-26T08:33:15.225Z,99.99
2023-03-26T08:34:15.278Z,99.99
2023-03-26T08:35:15.189Z,99.99
2023-03-26T08:36:15.170Z,99.99
2023-03-26T08:37:15.186Z,99.99
2023-03-26T08:38:15.154Z,99.99
2023-03-26T08:39:15.143Z,99.99
2023-03-26T08:40:15.164Z,99.99
2023-03-26T08:41:15.152Z,99.99
2023-03-26T08:42:15.141Z,99.99
2023-03-26T08:43:15.145Z,99.99
2023-03-26T08:44:15.100Z,99.99
2023-03-26T08:45:15.080Z,99.99
2023-03-26T08:46:15.135Z,99.99
2023-03-26T08:47:15.091Z,99.99
2023-03-26T08:48:15.069Z,99.99
2023-03-26T08:49:15.045Z,99.99
2023-03-26T08:50:15.067Z,99.99
2023-03-26T08:51:15.023Z,99.99
2023-03-26T08:52:15.027Z,99.99
2023-03-26T08:53:15.000Z,99.99
2023-03-26T08:54:15.009Z,99.99
2023-03-26T08:55:15.032Z,99.99
2023-03-26T08:56:15.093Z,99.99
2023-03-26T08:57:14.989Z,99.99
2023-03-26T08:58:14.945Z,99.99
2023-03-26T08:59:14.958Z,99.99
2023-03-26T09:00:14.937Z,99.99
2023-03-26T09:01:14.962Z,99.99
2023-03-26T09:02:14.908Z,99.99
2023-03-26T09:03:14.899Z,99.99
2023-03-26T09:04:14.953Z,99.99
2023-03-26T09:05:14.905Z,99.99
2023-03-26T09:06:14.995Z,99.99
2023-03-26T09:07:14.840Z,99.99
2023-03-26T09:08:14.918Z,99.99
2023-03-26T09:09:19.276Z,99.99
2023-03-26T09:10:14.995Z,99.99
2023-03-26T09:11:14.829Z,99.99
2023-03-26T09:12:14.811Z,99.99
2023-03-26T09:13:14.797Z,99.99
2023-03-26T09:14:14.779Z,99.99
2023-03-26T09:15:14.813Z,99.99
2023-03-26T09:16:14.769Z,99.99
2023-03-26T09:17:14.751Z,99.99
2023-03-26T09:18:14.764Z,99.99
2023-03-26T09:19:14.772Z,99.99
2023-03-26T09:20:14.749Z,99.99
2023-03-26T09:21:14.718Z,99.99
2023-03-26T09:22:14.776Z,99.99
2023-03-26T09:23:15.159Z,99.99
2023-03-26T09:24:14.714Z,99.99
2023-03-26T09:25:14.657Z,99.99
2023-03-26T09:26:14.637Z,99.99
2023-03-26T09:27:14.653Z,99.99
2023-03-26T09:28:14.661Z,99.99
2023-03-26T09:29:14.643Z,99.99
2023-03-26T09:30:14.707Z,99.99
2023-03-26T09:31:14.728Z,99.99
2023-03-26T09:32:14.574Z,99.99
2023-03-26T09:33:14.592Z,99.99
2023-03-26T09:34:14.593Z,99.99
2023-03-26T09:35:14.588Z,99.99
2023-03-26T09:36:14.549Z,99.99
2023-03-26T09:37:14.529Z,99.99
2023-03-26T09:38:14.529Z,99.99
2023-03-26T09:39:14.524Z,99.99
2023-03-26T09:40:14.534Z,99.99
2023-03-26T09:41:14.520Z,99.99
2023-03-26T09:42:14.494Z,99.99
2023-03-26T09:43:14.490Z,99.99
2023-03-26T09:44:14.437Z,99.99
2023-03-26T09:45:14.432Z,99.99
2023-03-26T09:46:14.456Z,99.99
2023-03-26T09:47:14.427Z,99.99
2023-03-26T09:48:14.447Z,99.99
2023-03-26T09:49:14.414Z,99.99
2023-03-26T09:50:14.427Z,99.99
2023-03-26T09:51:14.394Z,99.99
2023-03-26T09:52:14.386Z,99.99
2023-03-26T09:53:14.391Z,99.99
2023-03-26T09:54:14.350Z,99.99
2023-03-26T09:55:14.374Z,99.99
2023-03-26T09:56:14.317Z,99.99
2023-03-26T09:57:14.321Z,99.99
2023-03-26T09:58:14.306Z,99.99
2023-03-26T09:59:14.338Z,99.99
2023-03-26T10:00:14.284Z,99.99
2023-03-26T10:01:14.298Z,99.99
2023-03-26T10:02:14.252Z,99.99
2023-03-26T10:03:14.319Z,99.99
2023-03-26T10:04:14.256Z,99.99
2023-03-26T10:05:14.248Z,99.99
2023-03-26T10:06:14.219Z,99.99
2023-03-26T10:07:14.201Z,99.99
2023-03-26T10:08:14.193Z,99.99
2023-03-26T10:09:14.193Z,99.99
2023-03-26T10:10:14.181Z,99.99
2023-03-26T10:11:14.174Z,99.99
2023-03-26T10:12:14.149Z,99.99
2023-03-26T10:13:15.195Z,99.99
2023-03-26T10:14:14.127Z,99.99
2023-03-26T10:15:14.137Z,99.99
2023-03-26T10:16:14.128Z,99.99
2023-03-26T10:17:14.138Z,99.99
2023-03-26T10:18:27.832Z,99.99
2023-03-26T10:19:14.077Z,99.99
2023-03-26T10:20:14.099Z,99.99
2023-03-26T10:21:14.060Z,99.99
2023-03-26T10:22:14.054Z,99.99
2023-03-26T10:23:14.041Z,99.99
2023-03-26T10:24:14.049Z,99.99
2023-03-26T10:25:14.009Z,99.99
2023-03-26T10:26:14.017Z,99.99
2023-03-26T10:27:14.009Z,99.99
2023-03-26T10:28:14.006Z,99.99
2023-03-26T10:29:14.005Z,99.99
2023-03-26T10:30:13.944Z,99.99
2023-03-26T10:31:14.026Z,99.99
2023-03-26T10:32:13.921Z,99.99
2023-03-26T10:33:13.917Z,99.99
2023-03-26T10:34:29.147Z,99.99
2023-03-26T10:35:13.907Z,99.99
2023-03-26T10:36:13.892Z,99.99
2023-03-26T10:37:13.889Z,99.99
2023-03-26T10:38:13.864Z,99.99
2023-03-26T10:39:36.338Z,99.77
2023-03-26T10:40:13.863Z,98.65
2023-03-26T10:41:13.862Z,98.85
2023-03-26T10:42:13.826Z,98.60
2023-03-26T10:43:13.832Z,99.01
2023-03-26T10:44:13.782Z,98.70
2023-03-26T10:45:13.833Z,98.80
2023-03-26T10:46:13.947Z,98.29
2023-03-26T10:47:13.781Z,98.80
2023-03-26T10:48:13.779Z,98.60
2023-03-26T10:49:13.741Z,98.39
2023-03-26T10:50:15.007Z,98.50
2023-03-26T10:51:13.748Z,98.19
2023-03-26T10:52:13.720Z,98.60
2023-03-26T10:53:13.712Z,98.60
2023-03-26T10:54:13.702Z,99.05
2023-03-26T10:55:13.717Z,98.96
2023-03-26T10:56:13.671Z,98.80
2023-03-26T10:57:13.689Z,99.27
2023-03-26T10:58:13.656Z,99.11
2023-03-26T10:59:13.691Z,98.50
2023-03-26T11:00:13.614Z,98.80
2023-03-26T11:01:13.650Z,99.21
2023-03-26T11:02:13.619Z,99.01
2023-03-26T11:03:13.663Z,99.01
2023-03-26T11:04:13.589Z,99.52
2023-03-26T11:05:13.828Z,99.27
2023-03-26T11:06:13.569Z,99.27
2023-03-26T11:07:13.550Z,99.48
2023-03-26T11:08:13.563Z,99.38
2023-03-26T11:09:13.545Z,99.07
2023-03-26T11:10:13.544Z,98.86
2023-03-26T11:11:13.509Z,99.68
2023-03-26T11:12:26.084Z,99.17
2023-03-26T11:13:13.520Z,99.12
2023-03-26T11:14:21.357Z,98.82
2023-03-26T11:15:13.504Z,98.10
2023-03-26T11:16:13.483Z,97.95
2023-03-26T11:17:14.552Z,97.64
2023-03-26T11:18:13.540Z,96.77
2023-03-26T11:19:13.440Z,97.48
2023-03-26T11:20:13.674Z,97.02
2023-03-26T11:21:18.974Z,97.94
2023-03-26T11:22:13.400Z,97.63
2023-03-26T11:23:13.394Z,97.83
2023-03-26T11:24:13.397Z,98.08
2023-03-26T11:25:13.361Z,97.47
2023-03-26T11:26:13.364Z,98.08
2023-03-26T11:27:14.873Z,99.01
2023-03-26T11:28:14.008Z,99.52
2023-03-26T11:29:31.480Z,99.98
2023-03-26T11:30:13.369Z,99.99
2023-03-26T11:31:13.355Z,99.99
2023-03-26T11:32:13.352Z,99.99
2023-03-26T11:33:13.286Z,99.99
2023-03-26T11:34:13.276Z,99.99
2023-03-26T11:35:13.248Z,99.99
2023-03-26T11:36:13.283Z,99.99
2023-03-26T11:37:13.438Z,99.99
2023-03-26T11:38:13.255Z,99.99
2023-03-26T11:39:13.237Z,99.99
2023-03-26T11:40:13.212Z,99.99
2023-03-26T11:41:13.220Z,99.99
2023-03-26T11:42:13.207Z,99.99
2023-03-26T11:43:13.168Z,99.99
2023-03-26T11:44:13.153Z,99.99
2023-03-26T11:45:13.161Z,99.99
2023-03-26T11:46:13.204Z,99.99
2023-03-26T11:47:13.127Z,99.99
2023-03-26T11:48:13.132Z,99.99
2023-03-26T11:49:13.128Z,99.99
2023-03-26T11:50:13.123Z,99.99
2023-03-26T11:51:13.086Z,99.99
2023-03-26T11:52:13.098Z,99.99
2023-03-26T11:53:13.424Z,99.99
2023-03-26T11:54:13.040Z,99.99
2023-03-26T11:55:13.034Z,99.99
2023-03-26T11:56:13.094Z,99.99
2023-03-26T11:57:13.110Z,99.58
2023-03-26T11:58:13.026Z,99.38
2023-03-26T11:59:13.021Z,99.95
2023-03-26T12:00:13.022Z,99.99
2023-03-26T12:01:13.019Z,99.99
2023-03-26T12:02:13.082Z,99.99
2023-03-26T12:03:13.023Z,99.59
2023-03-26T12:04:12.988Z,99.18
2023-03-26T12:05:13.017Z,99.49
2023-03-26T12:06:12.904Z,99.69
2023-03-26T12:07:12.916Z,99.69
2023-03-26T12:08:12.933Z,99.99
2023-03-26T12:09:12.901Z,99.99
2023-03-26T12:10:15.490Z,99.90
2023-03-26T12:11:12.907Z,99.54
2023-03-26T12:12:12.829Z,99.63
2023-03-26T12:13:12.835Z,99.54
2023-03-26T12:14:12.831Z,99.54
2023-03-26T12:15:12.836Z,99.99
2023-03-26T12:16:12.851Z,99.99
2023-03-26T12:17:12.780Z,99.84
2023-03-26T12:18:12.826Z,99.99
2023-03-26T12:19:12.773Z,99.99
2023-03-26T12:20:12.819Z,99.99
2023-03-26T12:21:12.770Z,99.99
2023-03-26T12:22:12.747Z,99.79
2023-03-26T12:23:12.733Z,98.77
2023-03-26T12:24:12.771Z,98.42
2023-03-26T12:25:15.140Z,98.42
2023-03-26T12:26:13.788Z,98.07
2023-03-26T12:27:12.709Z,98.02
2023-03-26T12:28:12.682Z,97.91
2023-03-26T12:29:12.679Z,97.91
2023-03-26T12:30:12.730Z,98.43
2023-03-26T12:31:12.729Z,96.89
2023-03-26T12:32:12.638Z,97.40
2023-03-26T12:33:12.662Z,96.58
2023-03-26T12:34:12.641Z,97.09
2023-03-26T12:35:12.605Z,96.89
2023-03-26T12:36:12.578Z,95.97
2023-03-26T12:37:12.551Z,96.07
2023-03-26T12:38:12.575Z,96.38
2023-03-26T12:39:16.986Z,97.40
2023-03-26T12:40:17.041Z,97.30
2023-03-26T12:44:43.669Z,96.17
2023-03-26T12:44:58.763Z,96.89
2023-03-26T12:45:05.249Z,97.46
2023-03-26T12:47:56.403Z,97.15
2023-03-26T12:48:04.774Z,97.05
2023-03-26T12:48:10.361Z,96.33
2023-03-26T12:49:10.326Z,96.74
2023-03-26T12:50:10.208Z,96.44
2023-03-26T12:51:10.249Z,96.19
2023-03-26T12:52:10.162Z,96.91
2023-03-26T12:53:10.176Z,96.19
2023-03-26T12:54:10.151Z,95.63